sensor_id;sensor_type;location;lat;lon;timestamp;pressure;altitude;pressure_sealevel;temperature;humidity
59170;BME280;52474;52.236;5.114;2023-12-20T00:01:01;101583.16;;;5.70;100.00
59170;BME280;52474;52.236;5.114;2023-12-20T00:03:26;101596.69;;;5.79;100.00
59170;BME280;52474;52.236;5.114;2023-12-20T00:05:52;101598.88;;;5.87;100.00
59170;BME280;52474;52.236;5.114;2023-12-20T00:08:18;101609.56;;;5.84;100.00
59170;BME280;52474;52.236;5.114;2023-12-20T00:10:44;101604.81;;;5.75;100.00
59170;BME280;52474;52.236;5.114;2023-12-20T00:13:10;101565.59;;;5.54;100.00
59170;BME280;52474;52.236;5.114;2023-12-20T00:15:36;101597.44;;;5.81;100.00
59170;BME280;52474;52.236;5.114;2023-12-20T00:18:02;101592.09;;;5.83;100.00
59170;BME280;52474;52.236;5.114;2023-12-20T00:20:28;101570.19;;;5.67;100.00
59170;BME280;52474;52.236;5.114;2023-12-20T00:22:56;101591.34;;;5.81;100.00
59170;BME280;52474;52.236;5.114;2023-12-20T00:25:21;101594.56;;;5.86;100.00
59170;BME280;52474;52.236;5.114;2023-12-20T00:27:47;101599.13;;;5.82;100.00
59170;BME280;52474;52.236;5.114;2023-12-20T00:30:13;101587.25;;;5.75;100.00
59170;BME280;52474;52.236;5.114;2023-12-20T00:32:38;101605.22;;;5.83;100.00
59170;BME280;52474;52.236;5.114;2023-12-20T00:35:04;101598.88;;;5.87;100.00
59170;BME280;52474;52.236;5.114;2023-12-20T00:37:30;101593.88;;;5.82;100.00
59170;BME280;52474;52.236;5.114;2023-12-20T00:39:55;101577.31;;;5.65;100.00
59170;BME280;52474;52.236;5.114;2023-12-20T00:42:21;101602.78;;;5.80;100.00
59170;BME280;52474;52.236;5.114;2023-12-20T00:44:47;101594.47;;;5.88;100.00
59170;BME280;52474;52.236;5.114;2023-12-20T00:47:12;101576.41;;;5.81;100.00
59170;BME280;52474;52.236;5.114;2023-12-20T00:49:38;101570.81;;;5.72;100.00
59170;BME280;52474;52.236;5.114;2023-12-20T00:52:04;101597.28;;;5.85;100.00
59170;BME280;52474;52.236;5.114;2023-12-20T00:54:30;101597.63;;;5.78;100.00
59170;BME280;52474;52.236;5.114;2023-12-20T00:56:56;101578.59;;;5.73;100.00
59170;BME280;52474;52.236;5.114;2023-12-20T00:59:21;101586.34;;;5.76;100.00
59170;BME280;52474;52.236;5.114;2023-12-20T01:01:47;101563.16;;;5.67;100.00
59170;BME280;52474;52.236;5.114;2023-12-20T01:04:13;101582.75;;;5.77;100.00
59170;BME280;52474;52.236;5.114;2023-12-20T01:06:38;101560.47;;;5.69;100.00
59170;BME280;52474;52.236;5.114;2023-12-20T01:09:04;101578.69;;;5.88;100.00
59170;BME280;52474;52.236;5.114;2023-12-20T01:11:29;101566.44;;;5.88;100.00
59170;BME280;52474;52.236;5.114;2023-12-20T01:13:55;101588.16;;;6.08;100.00
59170;BME280;52474;52.236;5.114;2023-12-20T01:16:21;101582.25;;;6.04;100.00
59170;BME280;52474;52.236;5.114;2023-12-20T01:18:46;101583.09;;;6.05;100.00
59170;BME280;52474;52.236;5.114;2023-12-20T01:21:12;101586.13;;;5.97;100.00
59170;BME280;52474;52.236;5.114;2023-12-20T01:23:38;101595.31;;;6.06;100.00
59170;BME280;52474;52.236;5.114;2023-12-20T01:26:03;101578.00;;;6.01;100.00
59170;BME280;52474;52.236;5.114;2023-12-20T01:28:31;101598.84;;;6.05;100.00
59170;BME280;52474;52.236;5.114;2023-12-20T01:30:57;101586.72;;;6.02;100.00
59170;BME280;52474;52.236;5.114;2023-12-20T01:33:23;101578.91;;;6.00;100.00
59170;BME280;52474;52.236;5.114;2023-12-20T01:35:49;101579.69;;;6.02;100.00
59170;BME280;52474;52.236;5.114;2023-12-20T01:38:14;101575.78;;;5.94;100.00
59170;BME280;52474;52.236;5.114;2023-12-20T01:40:40;101559.06;;;5.95;100.00
59170;BME280;52474;52.236;5.114;2023-12-20T01:43:09;101579.25;;;6.10;100.00
59170;BME280;52474;52.236;5.114;2023-12-20T01:45:35;101576.03;;;6.05;100.00
59170;BME280;52474;52.236;5.114;2023-12-20T01:48:02;101554.34;;;6.01;100.00
59170;BME280;52474;52.236;5.114;2023-12-20T01:50:29;101575.88;;;6.24;100.00
59170;BME280;52474;52.236;5.114;2023-12-20T01:52:57;101572.81;;;6.32;100.00
59170;BME280;52474;52.236;5.114;2023-12-20T01:55:25;101578.09;;;6.32;100.00
59170;BME280;52474;52.236;5.114;2023-12-20T01:57:51;101549.66;;;6.22;100.00
59170;BME280;52474;52.236;5.114;2023-12-20T02:00:17;101555.44;;;6.29;100.00
59170;BME280;52474;52.236;5.114;2023-12-20T02:02:44;101570.94;;;6.50;100.00
59170;BME280;52474;52.236;5.114;2023-12-20T02:05:10;101574.66;;;6.61;100.00
59170;BME280;52474;52.236;5.114;2023-12-20T02:07:36;101575.41;;;6.63;100.00
59170;BME280;52474;52.236;5.114;2023-12-20T02:10:02;101571.09;;;6.62;100.00
59170;BME280;52474;52.236;5.114;2023-12-20T02:12:30;101561.53;;;6.45;100.00
59170;BME280;52474;52.236;5.114;2023-12-20T02:14:56;101569.50;;;6.44;100.00
59170;BME280;52474;52.236;5.114;2023-12-20T02:17:22;101578.50;;;6.56;100.00
59170;BME280;52474;52.236;5.114;2023-12-20T02:19:47;101566.00;;;6.59;100.00
59170;BME280;52474;52.236;5.114;2023-12-20T02:22:13;101543.63;;;6.52;100.00
59170;BME280;52474;52.236;5.114;2023-12-20T02:24:39;101555.31;;;6.62;100.00
59170;BME280;52474;52.236;5.114;2023-12-20T02:27:06;101567.19;;;6.70;100.00
59170;BME280;52474;52.236;5.114;2023-12-20T02:29:35;101555.91;;;6.68;100.00
59170;BME280;52474;52.236;5.114;2023-12-20T02:32:01;101557.56;;;6.69;100.00
59170;BME280;52474;52.236;5.114;2023-12-20T02:34:28;101557.69;;;6.67;100.00
59170;BME280;52474;52.236;5.114;2023-12-20T02:36:54;101538.50;;;6.49;100.00
59170;BME280;52474;52.236;5.114;2023-12-20T02:39:21;101565.91;;;6.61;100.00
59170;BME280;52474;52.236;5.114;2023-12-20T02:41:48;101555.06;;;6.67;100.00
59170;BME280;52474;52.236;5.114;2023-12-20T02:44:14;101547.84;;;6.55;100.00
59170;BME280;52474;52.236;5.114;2023-12-20T02:46:39;101560.72;;;6.59;100.00
59170;BME280;52474;52.236;5.114;2023-12-20T02:49:06;101559.13;;;6.57;100.00
59170;BME280;52474;52.236;5.114;2023-12-20T02:51:31;101558.38;;;6.55;100.00
59170;BME280;52474;52.236;5.114;2023-12-20T02:53:57;101548.19;;;6.49;100.00
59170;BME280;52474;52.236;5.114;2023-12-20T02:56:22;101551.78;;;6.48;100.00
59170;BME280;52474;52.236;5.114;2023-12-20T02:58:48;101533.09;;;6.36;100.00
59170;BME280;52474;52.236;5.114;2023-12-20T03:01:14;101546.78;;;6.43;100.00
59170;BME280;52474;52.236;5.114;2023-12-20T03:03:39;101541.16;;;6.49;100.00
59170;BME280;52474;52.236;5.114;2023-12-20T03:06:05;101534.00;;;6.51;100.00
59170;BME280;52474;52.236;5.114;2023-12-20T03:08:31;101521.13;;;6.47;100.00
59170;BME280;52474;52.236;5.114;2023-12-20T03:10:56;101536.97;;;6.61;100.00
59170;BME280;52474;52.236;5.114;2023-12-20T03:13:23;101517.47;;;6.49;100.00
59170;BME280;52474;52.236;5.114;2023-12-20T03:15:49;101523.16;;;6.57;100.00
59170;BME280;52474;52.236;5.114;2023-12-20T03:18:15;101522.78;;;6.63;100.00
59170;BME280;52474;52.236;5.114;2023-12-20T03:20:40;101490.81;;;6.55;100.00
59170;BME280;52474;52.236;5.114;2023-12-20T03:23:07;101516.41;;;6.68;100.00
59170;BME280;52474;52.236;5.114;2023-12-20T03:25:32;101519.88;;;6.68;100.00
59170;BME280;52474;52.236;5.114;2023-12-20T03:27:58;101524.84;;;6.58;100.00
59170;BME280;52474;52.236;5.114;2023-12-20T03:30:23;101521.03;;;6.48;100.00
59170;BME280;52474;52.236;5.114;2023-12-20T03:32:49;101519.06;;;6.52;100.00
59170;BME280;52474;52.236;5.114;2023-12-20T03:35:15;101516.63;;;6.49;100.00
59170;BME280;52474;52.236;5.114;2023-12-20T03:37:40;101513.81;;;6.52;100.00
59170;BME280;52474;52.236;5.114;2023-12-20T03:40:06;101493.56;;;6.38;100.00
59170;BME280;52474;52.236;5.114;2023-12-20T03:42:32;101537.38;;;6.69;100.00
59170;BME280;52474;52.236;5.114;2023-12-20T03:44:57;101542.72;;;6.68;100.00
59170;BME280;52474;52.236;5.114;2023-12-20T03:47:23;101513.00;;;6.65;100.00
59170;BME280;52474;52.236;5.114;2023-12-20T03:49:49;101537.91;;;6.60;100.00
59170;BME280;52474;52.236;5.114;2023-12-20T03:52:14;101524.69;;;6.45;100.00
59170;BME280;52474;52.236;5.114;2023-12-20T03:54:40;101555.31;;;6.62;100.00
59170;BME280;52474;52.236;5.114;2023-12-20T03:57:07;101525.03;;;6.55;100.00
59170;BME280;52474;52.236;5.114;2023-12-20T03:59:37;101525.22;;;6.66;100.00
59170;BME280;52474;52.236;5.114;2023-12-20T04:02:03;101534.78;;;6.83;100.00
59170;BME280;52474;52.236;5.114;2023-12-20T04:04:29;101509.75;;;6.76;100.00
59170;BME280;52474;52.236;5.114;2023-12-20T04:06:55;101520.78;;;6.83;100.00
59170;BME280;52474;52.236;5.114;2023-12-20T04:09:21;101522.19;;;6.88;100.00
59170;BME280;52474;52.236;5.114;2023-12-20T04:11:46;101513.94;;;6.95;100.00
59170;BME280;52474;52.236;5.114;2023-12-20T04:14:12;101509.44;;;6.97;100.00
59170;BME280;52474;52.236;5.114;2023-12-20T04:16:37;101528.72;;;6.97;100.00
59170;BME280;52474;52.236;5.114;2023-12-20T04:19:04;101519.78;;;7.00;100.00
59170;BME280;52474;52.236;5.114;2023-12-20T04:21:30;101459.34;;;6.68;100.00
59170;BME280;52474;52.236;5.114;2023-12-20T04:23:56;101508.28;;;7.01;100.00
59170;BME280;52474;52.236;5.114;2023-12-20T04:26:21;101504.47;;;7.06;100.00
59170;BME280;52474;52.236;5.114;2023-12-20T04:28:47;101472.28;;;6.87;100.00
59170;BME280;52474;52.236;5.114;2023-12-20T04:31:13;101517.78;;;7.03;100.00
59170;BME280;52474;52.236;5.114;2023-12-20T04:33:39;101507.25;;;7.03;100.00
59170;BME280;52474;52.236;5.114;2023-12-20T04:36:04;101503.88;;;7.01;100.00
59170;BME280;52474;52.236;5.114;2023-12-20T04:38:30;101500.41;;;7.01;100.00
59170;BME280;52474;52.236;5.114;2023-12-20T04:40:56;101497.59;;;7.04;100.00
59170;BME280;52474;52.236;5.114;2023-12-20T04:43:21;101491.28;;;7.06;100.00
59170;BME280;52474;52.236;5.114;2023-12-20T04:45:47;101507.28;;;7.18;100.00
59170;BME280;52474;52.236;5.114;2023-12-20T04:48:13;101473.13;;;7.02;100.00
59170;BME280;52474;52.236;5.114;2023-12-20T04:50:39;101495.16;;;7.15;100.00
59170;BME280;52474;52.236;5.114;2023-12-20T04:53:04;101502.41;;;7.12;100.00
59170;BME280;52474;52.236;5.114;2023-12-20T04:55:30;101485.91;;;7.08;100.00
59170;BME280;52474;52.236;5.114;2023-12-20T04:57:56;101484.88;;;7.10;100.00
59170;BME280;52474;52.236;5.114;2023-12-20T05:00:22;101471.63;;;6.98;100.00
59170;BME280;52474;52.236;5.114;2023-12-20T05:02:47;101462.59;;;7.02;100.00
59170;BME280;52474;52.236;5.114;2023-12-20T05:05:13;101489.13;;;7.13;100.00
59170;BME280;52474;52.236;5.114;2023-12-20T05:07:40;101490.16;;;7.10;100.00
59170;BME280;52474;52.236;5.114;2023-12-20T05:10:06;101496.00;;;7.16;100.00
59170;BME280;52474;52.236;5.114;2023-12-20T05:12:33;101501.75;;;7.22;100.00
59170;BME280;52474;52.236;5.114;2023-12-20T05:14:59;101498.53;;;7.17;100.00
59170;BME280;52474;52.236;5.114;2023-12-20T05:17:25;101508.03;;;7.20;100.00
59170;BME280;52474;52.236;5.114;2023-12-20T05:19:51;101504.47;;;7.21;100.00
59170;BME280;52474;52.236;5.114;2023-12-20T05:22:17;101502.69;;;7.21;100.00
59170;BME280;52474;52.236;5.114;2023-12-20T05:24:44;101507.84;;;7.23;100.00
59170;BME280;52474;52.236;5.114;2023-12-20T05:27:09;101493.91;;;7.21;100.00
59170;BME280;52474;52.236;5.114;2023-12-20T05:29:35;101478.50;;;7.15;100.00
59170;BME280;52474;52.236;5.114;2023-12-20T05:32:01;101465.88;;;7.05;100.00
59170;BME280;52474;52.236;5.114;2023-12-20T05:34:27;101469.63;;;7.01;100.00
59170;BME280;52474;52.236;5.114;2023-12-20T05:36:52;101495.53;;;7.23;100.00
59170;BME280;52474;52.236;5.114;2023-12-20T05:39:18;101473.22;;;7.15;100.00
59170;BME280;52474;52.236;5.114;2023-12-20T05:41:43;101473.31;;;7.13;100.00
59170;BME280;52474;52.236;5.114;2023-12-20T05:44:09;101474.75;;;7.19;100.00
59170;BME280;52474;52.236;5.114;2023-12-20T05:46:35;101461.38;;;7.07;100.00
59170;BME280;52474;52.236;5.114;2023-12-20T05:49:01;101474.28;;;7.12;100.00
59170;BME280;52474;52.236;5.114;2023-12-20T05:51:28;101491.13;;;7.24;100.00
59170;BME280;52474;52.236;5.114;2023-12-20T05:53:53;101500.34;;;7.31;100.00
59170;BME280;52474;52.236;5.114;2023-12-20T05:56:19;101474.84;;;7.17;100.00
59170;BME280;52474;52.236;5.114;2023-12-20T05:58:44;101489.69;;;7.32;100.00
59170;BME280;52474;52.236;5.114;2023-12-20T06:01:10;101488.09;;;7.30;100.00
59170;BME280;52474;52.236;5.114;2023-12-20T06:03:36;101488.66;;;7.35;100.00
59170;BME280;52474;52.236;5.114;2023-12-20T06:06:06;101482.53;;;7.35;100.00
59170;BME280;52474;52.236;5.114;2023-12-20T06:08:32;101470.59;;;7.29;100.00
59170;BME280;52474;52.236;5.114;2023-12-20T06:10:58;101476.63;;;7.31;100.00
59170;BME280;52474;52.236;5.114;2023-12-20T06:13:23;101477.56;;;7.44;100.00
59170;BME280;52474;52.236;5.114;2023-12-20T06:15:49;101471.81;;;7.38;100.00
59170;BME280;52474;52.236;5.114;2023-12-20T06:18:15;101449.81;;;7.24;100.00
59170;BME280;52474;52.236;5.114;2023-12-20T06:20:40;101448.38;;;7.33;100.00
59170;BME280;52474;52.236;5.114;2023-12-20T06:23:06;101461.00;;;7.42;100.00
59170;BME280;52474;52.236;5.114;2023-12-20T06:25:31;101469.38;;;7.49;100.00
59170;BME280;52474;52.236;5.114;2023-12-20T06:27:57;101477.28;;;7.49;100.00
59170;BME280;52474;52.236;5.114;2023-12-20T06:30:23;101454.41;;;7.35;100.00
59170;BME280;52474;52.236;5.114;2023-12-20T06:32:50;101491.50;;;7.46;100.00
59170;BME280;52474;52.236;5.114;2023-12-20T06:35:15;101474.84;;;7.46;100.00
59170;BME280;52474;52.236;5.114;2023-12-20T06:37:41;101458.00;;;7.34;100.00
59170;BME280;52474;52.236;5.114;2023-12-20T06:40:09;101469.28;;;7.36;100.00
59170;BME280;52474;52.236;5.114;2023-12-20T06:42:36;101482.63;;;7.47;100.00
59170;BME280;52474;52.236;5.114;2023-12-20T06:45:02;101480.19;;;7.59;100.00
59170;BME280;52474;52.236;5.114;2023-12-20T06:47:27;101469.16;;;7.52;100.00
59170;BME280;52474;52.236;5.114;2023-12-20T06:49:53;101443.03;;;7.35;100.00
59170;BME280;52474;52.236;5.114;2023-12-20T06:52:19;101475.00;;;7.57;100.00
59170;BME280;52474;52.236;5.114;2023-12-20T06:54:44;101480.38;;;7.56;100.00
59170;BME280;52474;52.236;5.114;2023-12-20T06:57:10;101482.25;;;7.53;100.00
59170;BME280;52474;52.236;5.114;2023-12-20T06:59:40;101442.06;;;7.36;100.00
59170;BME280;52474;52.236;5.114;2023-12-20T07:02:05;101459.31;;;7.41;100.00
59170;BME280;52474;52.236;5.114;2023-12-20T07:04:31;101476.88;;;7.55;100.00
59170;BME280;52474;52.236;5.114;2023-12-20T07:06:56;101455.72;;;7.42;100.00
59170;BME280;52474;52.236;5.114;2023-12-20T07:09:26;101460.41;;;7.51;100.00
59170;BME280;52474;52.236;5.114;2023-12-20T07:11:52;101468.34;;;7.51;100.00
59170;BME280;52474;52.236;5.114;2023-12-20T07:14:18;101471.81;;;7.52;100.00
59170;BME280;52474;52.236;5.114;2023-12-20T07:16:44;101446.22;;;7.40;100.00
59170;BME280;52474;52.236;5.114;2023-12-20T07:19:09;101447.53;;;7.47;100.00
59170;BME280;52474;52.236;5.114;2023-12-20T07:21:35;101450.63;;;7.53;100.00
59170;BME280;52474;52.236;5.114;2023-12-20T07:24:01;101457.66;;;7.53;100.00
59170;BME280;52474;52.236;5.114;2023-12-20T07:26:26;101437.28;;;7.42;100.00
59170;BME280;52474;52.236;5.114;2023-12-20T07:28:52;101420.91;;;7.37;100.00
59170;BME280;52474;52.236;5.114;2023-12-20T07:31:18;101441.13;;;7.51;100.00
59170;BME280;52474;52.236;5.114;2023-12-20T07:33:43;101439.97;;;7.55;100.00
59170;BME280;52474;52.236;5.114;2023-12-20T07:36:09;101437.06;;;7.45;100.00
59170;BME280;52474;52.236;5.114;2023-12-20T07:38:35;101430.19;;;7.43;100.00
59170;BME280;52474;52.236;5.114;2023-12-20T07:41:01;101449.13;;;7.49;100.00
59170;BME280;52474;52.236;5.114;2023-12-20T07:43:26;101455.78;;;7.55;100.00
59170;BME280;52474;52.236;5.114;2023-12-20T07:45:52;101450.09;;;7.48;100.00
59170;BME280;52474;52.236;5.114;2023-12-20T07:48:18;101463.63;;;7.57;100.00
59170;BME280;52474;52.236;5.114;2023-12-20T07:50:43;101476.31;;;7.64;100.00
59170;BME280;52474;52.236;5.114;2023-12-20T07:53:09;101440.66;;;7.44;100.00
59170;BME280;52474;52.236;5.114;2023-12-20T07:55:35;101480.63;;;7.65;100.00
59170;BME280;52474;52.236;5.114;2023-12-20T07:58:00;101478.84;;;7.66;100.00
59170;BME280;52474;52.236;5.114;2023-12-20T08:00:26;101482.13;;;7.69;100.00
59170;BME280;52474;52.236;5.114;2023-12-20T08:02:52;101476.78;;;7.71;100.00
59170;BME280;52474;52.236;5.114;2023-12-20T08:05:18;101489.22;;;7.69;100.00
59170;BME280;52474;52.236;5.114;2023-12-20T08:07:44;101489.75;;;7.74;100.00
59170;BME280;52474;52.236;5.114;2023-12-20T08:10:09;101492.41;;;7.74;100.00
59170;BME280;52474;52.236;5.114;2023-12-20T08:12:35;101439.22;;;7.53;100.00
59170;BME280;52474;52.236;5.114;2023-12-20T08:15:01;101469.78;;;7.70;100.00
59170;BME280;52474;52.236;5.114;2023-12-20T08:17:27;101478.63;;;7.83;100.00
59170;BME280;52474;52.236;5.114;2023-12-20T08:19:53;101476.94;;;7.82;100.00
59170;BME280;52474;52.236;5.114;2023-12-20T08:22:18;101470.25;;;7.77;100.00
59170;BME280;52474;52.236;5.114;2023-12-20T08:24:44;101478.22;;;7.89;100.00
59170;BME280;52474;52.236;5.114;2023-12-20T08:27:10;101476.91;;;7.96;100.00
59170;BME280;52474;52.236;5.114;2023-12-20T08:29:36;101467.38;;;7.94;100.00
59170;BME280;52474;52.236;5.114;2023-12-20T08:32:01;101464.00;;;7.92;100.00
59170;BME280;52474;52.236;5.114;2023-12-20T08:34:27;101461.28;;;7.93;100.00
59170;BME280;52474;52.236;5.114;2023-12-20T08:36:53;101447.34;;;7.91;100.00
59170;BME280;52474;52.236;5.114;2023-12-20T08:39:19;101457.50;;;7.98;100.00
59170;BME280;52474;52.236;5.114;2023-12-20T08:41:45;101468.34;;;7.93;100.00
59170;BME280;52474;52.236;5.114;2023-12-20T08:44:11;101470.56;;;7.99;100.00
59170;BME280;52474;52.236;5.114;2023-12-20T08:46:36;101470.28;;;8.04;100.00
59170;BME280;52474;52.236;5.114;2023-12-20T08:49:02;101470.38;;;8.02;100.00
59170;BME280;52474;52.236;5.114;2023-12-20T08:51:28;101472.91;;;8.04;100.00
59170;BME280;52474;52.236;5.114;2023-12-20T08:53:54;101474.41;;;8.08;100.00
59170;BME280;52474;52.236;5.114;2023-12-20T08:56:20;101468.41;;;8.06;100.00
59170;BME280;52474;52.236;5.114;2023-12-20T08:58:46;101482.22;;;8.09;100.00
59170;BME280;52474;52.236;5.114;2023-12-20T09:01:13;101479.03;;;8.04;100.00
59170;BME280;52474;52.236;5.114;2023-12-20T09:03:39;101470.00;;;8.08;100.00
59170;BME280;52474;52.236;5.114;2023-12-20T09:06:05;101468.84;;;8.12;100.00
59170;BME280;52474;52.236;5.114;2023-12-20T09:08:31;101466.84;;;8.16;100.00
59170;BME280;52474;52.236;5.114;2023-12-20T09:10:56;101471.63;;;8.24;100.00
59170;BME280;52474;52.236;5.114;2023-12-20T09:13:22;101480.69;;;8.20;100.00
59170;BME280;52474;52.236;5.114;2023-12-20T09:15:56;101473.31;;;8.25;100.00
59170;BME280;52474;52.236;5.114;2023-12-20T09:18:22;101477.25;;;8.32;100.00
59170;BME280;52474;52.236;5.114;2023-12-20T09:20:48;101468.69;;;8.28;100.00
59170;BME280;52474;52.236;5.114;2023-12-20T09:23:13;101472.22;;;8.42;100.00
59170;BME280;52474;52.236;5.114;2023-12-20T09:25:39;101467.59;;;8.45;100.00
59170;BME280;52474;52.236;5.114;2023-12-20T09:28:05;101478.16;;;8.45;100.00
59170;BME280;52474;52.236;5.114;2023-12-20T09:30:30;101469.88;;;8.64;100.00
59170;BME280;52474;52.236;5.114;2023-12-20T09:32:57;101469.13;;;8.62;100.00
59170;BME280;52474;52.236;5.114;2023-12-20T09:35:23;101473.81;;;8.84;100.00
59170;BME280;52474;52.236;5.114;2023-12-20T09:37:49;101439.41;;;8.46;100.00
59170;BME280;52474;52.236;5.114;2023-12-20T09:40:18;101476.28;;;8.60;100.00
59170;BME280;52474;52.236;5.114;2023-12-20T09:42:58;101463.31;;;8.57;100.00
59170;BME280;52474;52.236;5.114;2023-12-20T09:45:24;101446.72;;;8.55;100.00
59170;BME280;52474;52.236;5.114;2023-12-20T09:47:52;101466.28;;;8.78;100.00
59170;BME280;52474;52.236;5.114;2023-12-20T09:50:20;101476.22;;;8.87;100.00
59170;BME280;52474;52.236;5.114;2023-12-20T09:52:50;101454.88;;;8.77;100.00
59170;BME280;52474;52.236;5.114;2023-12-20T09:55:17;101491.75;;;8.79;100.00
59170;BME280;52474;52.236;5.114;2023-12-20T09:57:43;101488.38;;;8.77;100.00
59170;BME280;52474;52.236;5.114;2023-12-20T10:00:09;101485.88;;;8.61;100.00
59170;BME280;52474;52.236;5.114;2023-12-20T10:02:50;101491.72;;;8.66;100.00
59170;BME280;52474;52.236;5.114;2023-12-20T10:05:17;101494.69;;;8.74;100.00
59170;BME280;52474;52.236;5.114;2023-12-20T10:07:46;101471.53;;;8.65;100.00
59170;BME280;52474;52.236;5.114;2023-12-20T10:10:13;101481.34;;;8.63;100.00
59170;BME280;52474;52.236;5.114;2023-12-20T10:12:39;101481.81;;;8.82;100.00
59170;BME280;52474;52.236;5.114;2023-12-20T10:15:14;101489.22;;;9.03;100.00
59170;BME280;52474;52.236;5.114;2023-12-20T10:17:43;101492.28;;;9.10;100.00
59170;BME280;52474;52.236;5.114;2023-12-20T10:20:09;101467.03;;;8.80;100.00
59170;BME280;52474;52.236;5.114;2023-12-20T10:22:35;101481.19;;;9.05;100.00
59170;BME280;52474;52.236;5.114;2023-12-20T10:25:01;101472.19;;;9.33;100.00
59170;BME280;52474;52.236;5.114;2023-12-20T10:27:28;101473.38;;;9.29;100.00
59170;BME280;52474;52.236;5.114;2023-12-20T10:29:53;101474.66;;;9.23;100.00
59170;BME280;52474;52.236;5.114;2023-12-20T10:32:27;101475.59;;;9.22;100.00
59170;BME280;52474;52.236;5.114;2023-12-20T10:34:54;101478.63;;;9.41;100.00
59170;BME280;52474;52.236;5.114;2023-12-20T10:37:20;101455.16;;;10.59;100.00
59170;BME280;52474;52.236;5.114;2023-12-20T10:39:50;101472.00;;;10.34;100.00
59170;BME280;52474;52.236;5.114;2023-12-20T10:42:19;101461.22;;;10.83;100.00
59170;BME280;52474;52.236;5.114;2023-12-20T10:44:46;101449.66;;;12.18;100.00
59170;BME280;52474;52.236;5.114;2023-12-20T10:47:13;101457.94;;;11.81;100.00
59170;BME280;52474;52.236;5.114;2023-12-20T10:49:39;101428.16;;;13.95;100.00
59170;BME280;52474;52.236;5.114;2023-12-20T10:52:06;101411.34;;;16.19;100.00
59170;BME280;52474;52.236;5.114;2023-12-20T10:54:32;101438.66;;;15.77;100.00
59170;BME280;52474;52.236;5.114;2023-12-20T10:56:59;101422.34;;;16.78;100.00
59170;BME280;52474;52.236;5.114;2023-12-20T10:59:27;101442.56;;;17.33;100.00
59170;BME280;52474;52.236;5.114;2023-12-20T11:01:55;101438.16;;;16.45;100.00
59170;BME280;52474;52.236;5.114;2023-12-20T11:04:28;101414.75;;;17.76;100.00
59170;BME280;52474;52.236;5.114;2023-12-20T11:07:00;101422.91;;;17.58;100.00
59170;BME280;52474;52.236;5.114;2023-12-20T11:09:39;101432.59;;;16.03;100.00
59170;BME280;52474;52.236;5.114;2023-12-20T11:12:16;101446.13;;;17.50;100.00
59170;BME280;52474;52.236;5.114;2023-12-20T11:14:48;101452.72;;;14.38;100.00
59170;BME280;52474;52.236;5.114;2023-12-20T11:17:15;101437.25;;;12.39;100.00
59170;BME280;52474;52.236;5.114;2023-12-20T11:22:30;101424.88;;;10.26;100.00
59170;BME280;52474;52.236;5.114;2023-12-20T11:25:08;101427.22;;;10.30;100.00
59170;BME280;52474;52.236;5.114;2023-12-20T11:27:35;101443.25;;;10.16;100.00
59170;BME280;52474;52.236;5.114;2023-12-20T11:30:04;101434.03;;;10.22;100.00
59170;BME280;52474;52.236;5.114;2023-12-20T11:32:36;101424.06;;;10.01;100.00
59170;BME280;52474;52.236;5.114;2023-12-20T11:37:38;101412.47;;;9.91;100.00
59170;BME280;52474;52.236;5.114;2023-12-20T11:40:11;101425.44;;;9.83;100.00
59170;BME280;52474;52.236;5.114;2023-12-20T11:42:41;101416.34;;;9.74;100.00
59170;BME280;52474;52.236;5.114;2023-12-20T11:45:11;101382.47;;;9.55;100.00
59170;BME280;52474;52.236;5.114;2023-12-20T11:47:43;101409.44;;;9.60;100.00
59170;BME280;52474;52.236;5.114;2023-12-20T11:50:11;101413.03;;;9.83;100.00
59170;BME280;52474;52.236;5.114;2023-12-20T11:52:36;101411.13;;;9.85;100.00
59170;BME280;52474;52.236;5.114;2023-12-20T11:55:02;101403.28;;;9.84;100.00
59170;BME280;52474;52.236;5.114;2023-12-20T11:57:30;101402.44;;;9.59;100.00
59170;BME280;52474;52.236;5.114;2023-12-20T11:59:56;101358.84;;;9.41;100.00
59170;BME280;52474;52.236;5.114;2023-12-20T12:02:21;101389.25;;;9.46;100.00
59170;BME280;52474;52.236;5.114;2023-12-20T12:04:50;101375.50;;;9.54;100.00
59170;BME280;52474;52.236;5.114;2023-12-20T12:07:16;101403.13;;;9.74;100.00
59170;BME280;52474;52.236;5.114;2023-12-20T12:09:43;101395.97;;;9.63;100.00
59170;BME280;52474;52.236;5.114;2023-12-20T12:12:10;101401.78;;;9.68;100.00
59170;BME280;52474;52.236;5.114;2023-12-20T12:14:37;101405.25;;;9.69;100.00
59170;BME280;52474;52.236;5.114;2023-12-20T12:17:04;101388.63;;;9.56;100.00
59170;BME280;52474;52.236;5.114;2023-12-20T12:19:30;101395.88;;;9.89;100.00
59170;BME280;52474;52.236;5.114;2023-12-20T12:22:10;101371.13;;;9.66;100.00
59170;BME280;52474;52.236;5.114;2023-12-20T12:24:45;101385.66;;;10.20;100.00
59170;BME280;52474;52.236;5.114;2023-12-20T12:27:14;101372.63;;;10.05;100.00
59170;BME280;52474;52.236;5.114;2023-12-20T12:29:41;101366.91;;;9.63;100.00
59170;BME280;52474;52.236;5.114;2023-12-20T12:32:25;101372.13;;;9.76;100.00
59170;BME280;52474;52.236;5.114;2023-12-20T12:34:50;101360.31;;;9.69;100.00
59170;BME280;52474;52.236;5.114;2023-12-20T12:37:16;101358.56;;;9.57;100.00
59170;BME280;52474;52.236;5.114;2023-12-20T12:39:42;101351.13;;;9.38;100.00
59170;BME280;52474;52.236;5.114;2023-12-20T12:42:08;101363.28;;;9.40;100.00
59170;BME280;52474;52.236;5.114;2023-12-20T12:44:33;101362.97;;;9.32;100.00
59170;BME280;52474;52.236;5.114;2023-12-20T12:46:59;101362.41;;;9.40;100.00
59170;BME280;52474;52.236;5.114;2023-12-20T12:49:28;101363.09;;;9.31;100.00
59170;BME280;52474;52.236;5.114;2023-12-20T12:51:54;101371.59;;;9.23;100.00